»·PEaware :: N58EU KPSP-KSEZ

N58EU :: KPSP-KSEZ

FLIGHT INFORMATION

Flight Status: Arrived
Operator: Privately registered:
United States
More flights under this callsign
Pilot: Ryan K. (15391)
Aircraft: BEECH AIRCRAFT BARON
(BE58)
More flights by this aircraft type
Origin: KPSP Palm Springs Intl
United States
Destination: KSEZ Sedona
United States
More flights between these airports :: More routes between these airports
Route: VFR
File this flight plan on PilotEdge
Remarks:
Altitude:
(Current/Filed)
9,500ft
Speed:
(Current/Filed)
180kts
Departed: 16-Sep-17 11:29 AM
Arrived: 16-Sep-17 01:00 PM
Distance/Time
Traveled:
242nm/1:31
Distance/Time
To Go:
Arrived

Flight Plot

Page will automatically refresh every two minutes.

Flight plan parsing failed; only flown route is shown


Map Options




Map Legend


Flown Route
Filed Route
Departure Airport
Arrival Airport
Navaid (VOR, NDB)
Fix

Horizontal Profiles

Position Reports

Time Latitude Longitude Heading Altitude Ground
Speed
16-Sep-17 11:03 33.828477 -116.514635 1 480ft 0kts
16-Sep-17 11:04 33.828477 -116.514635 1 480ft 0kts
16-Sep-17 11:05 33.828477 -116.514635 1 480ft 0kts
16-Sep-17 11:11 33.825356 -116.509543 90 480ft 0kts
16-Sep-17 11:12 33.825356 -116.509543 90 480ft 0kts
16-Sep-17 11:13 33.825356 -116.509543 90 480ft 0kts
16-Sep-17 11:14 33.825355 -116.509543 91 480ft 0kts
16-Sep-17 11:15 33.825356 -116.509543 90 480ft 0kts
16-Sep-17 11:16 33.825356 -116.509543 90 480ft 0kts
16-Sep-17 11:17 33.825356 -116.509543 90 480ft 0kts
16-Sep-17 11:18 33.825356 -116.509543 90 480ft 0kts
16-Sep-17 11:19 33.825356 -116.509543 90 480ft 0kts
16-Sep-17 11:20 33.825356 -116.509543 90 480ft 0kts
16-Sep-17 11:21 33.825356 -116.509543 90 480ft 0kts
16-Sep-17 11:22 33.825356 -116.509543 90 480ft 0kts
16-Sep-17 11:23 33.825352 -116.507453 89 480ft 0kts
16-Sep-17 11:24 33.825353 -116.507405 89 480ft 0kts
16-Sep-17 11:25 33.825353 -116.507389 89 480ft 0kts
16-Sep-17 11:26 33.825353 -116.507389 89 480ft 0kts
16-Sep-17 11:27 33.825357 -116.506370 76 480ft 7kts
16-Sep-17 11:28 33.821677 -116.502564 143 480ft 23kts
16-Sep-17 11:29 33.818156 -116.499113 50 480ft 0kts
16-Sep-17 11:30 33.818156 -116.499113 50 480ft 0kts
16-Sep-17 11:31 33.818156 -116.499113 50 480ft 0kts
16-Sep-17 11:32 33.819156 -116.498301 321 480ft 14kts
16-Sep-17 11:33 33.834627 -116.511583 326 756ft 124kts
16-Sep-17 11:34 33.863324 -116.512304 82 2130ft 134kts
16-Sep-17 11:35 33.845564 -116.472884 82 3373ft 146kts
16-Sep-17 11:36 33.856925 -116.428950 75 4649ft 147kts
16-Sep-17 11:37 33.866465 -116.381092 77 5828ft 151kts
16-Sep-17 11:38 33.875088 -116.332797 76 6790ft 151kts
16-Sep-17 11:39 33.894741 -116.290004 43 7645ft 153kts
16-Sep-17 11:40 33.923395 -116.252678 51 8482ft 151kts
16-Sep-17 11:41 33.949499 -116.212381 58 9284ft 151kts
16-Sep-17 11:42 33.970283 -116.165767 61 9779ft 164kts
16-Sep-17 11:43 33.992383 -116.112775 65 9628ft 198kts
16-Sep-17 11:44 34.008429 -116.051075 71 9725ft 197kts
16-Sep-17 11:45 34.027586 -115.988544 66 9552ft 203kts
16-Sep-17 11:46 34.049423 -115.925058 70 9293ft 206kts
16-Sep-17 11:47 34.062710 -115.860115 72 9487ft 192kts
16-Sep-17 11:48 34.078974 -115.798719 64 9518ft 197kts
16-Sep-17 11:49 34.116921 -115.753018 41 9501ft 191kts
16-Sep-17 11:50 34.156885 -115.711612 41 9466ft 190kts
16-Sep-17 11:51 34.198156 -115.671268 41 9398ft 194kts
16-Sep-17 11:52 34.238799 -115.627267 42 9339ft 198kts
16-Sep-17 11:53 34.278856 -115.582352 42 9343ft 192kts
16-Sep-17 11:54 34.317625 -115.539189 44 9303ft 187kts
16-Sep-17 11:55 34.364585 -115.512833 22 9190ft 189kts
16-Sep-17 11:56 34.413683 -115.491389 22 9089ft 188kts
16-Sep-17 11:57 34.462841 -115.469974 22 8977ft 188kts
16-Sep-17 11:58 34.510186 -115.449425 22 9310ft 172kts
16-Sep-17 11:59 34.555719 -115.429513 22 9484ft 180kts
16-Sep-17 12:00 34.603539 -115.408586 22 9504ft 184kts
16-Sep-17 12:01 34.651859 -115.387462 22 9517ft 185kts
16-Sep-17 12:02 34.700314 -115.365957 20 9532ft 186kts
16-Sep-17 12:03 34.748487 -115.345073 20 9548ft 186kts
16-Sep-17 12:04 34.781310 -115.306954 87 9573ft 184kts
16-Sep-17 12:05 34.781589 -115.244443 90 9565ft 186kts
16-Sep-17 12:06 34.780717 -115.181680 90 9544ft 187kts
16-Sep-17 12:07 34.779578 -115.118674 90 9524ft 189kts
16-Sep-17 12:08 34.778412 -115.054146 90 9502ft 192kts
16-Sep-17 12:09 34.777221 -114.989223 91 9483ft 193kts
16-Sep-17 12:10 34.775935 -114.923928 91 9477ft 193kts
16-Sep-17 12:11 34.774541 -114.858823 91 9477ft 193kts
16-Sep-17 12:12 34.773173 -114.793738 91 9477ft 193kts
16-Sep-17 12:13 34.771757 -114.728491 91 9495ft 193kts
16-Sep-17 12:14 34.770568 -114.662839 94 9499ft 196kts
16-Sep-17 12:15 34.768981 -114.597097 94 9496ft 192kts
16-Sep-17 12:16 34.767299 -114.533559 93 9495ft 185kts
16-Sep-17 12:17 34.765667 -114.471861 91 9493ft 181kts
16-Sep-17 12:18 34.764390 -114.410926 91 9494ft 180kts
16-Sep-17 12:19 34.762970 -114.350042 91 9494ft 180kts
16-Sep-17 12:20 34.761497 -114.290325 91 9496ft 180kts
16-Sep-17 12:21 34.759966 -114.229503 91 9496ft 180kts
16-Sep-17 12:22 34.758385 -114.168557 91 9496ft 180kts
16-Sep-17 12:23 34.756852 -114.107214 92 9497ft 184kts
16-Sep-17 12:24 34.755187 -114.044371 93 9404ft 193kts
16-Sep-17 12:25 34.753402 -113.978605 93 9292ft 192kts
16-Sep-17 12:26 34.751538 -113.914556 94 9400ft 190kts
16-Sep-17 12:27 34.749648 -113.849870 93 9403ft 193kts
16-Sep-17 12:28 34.747730 -113.784455 93 9402ft 193kts
16-Sep-17 12:29 34.745820 -113.719188 93 9402ft 192kts
16-Sep-17 12:30 34.743859 -113.654262 93 9402ft 192kts
16-Sep-17 12:31 34.741911 -113.589423 93 9402ft 192kts
16-Sep-17 12:32 34.739862 -113.524419 94 9402ft 192kts
16-Sep-17 12:33 34.738130 -113.470160 93 9402ft 192kts
16-Sep-17 12:34 34.735712 -113.394482 93 9403ft 193kts
16-Sep-17 12:35 34.733844 -113.340771 93 9484ft 195kts
16-Sep-17 12:36 34.731826 -113.282268 92 9483ft 196kts
16-Sep-17 12:37 34.729277 -113.206008 90 9484ft 195kts
16-Sep-17 12:38 34.727534 -113.152517 90 9482ft 192kts
16-Sep-17 12:39 34.725405 -113.089068 90 9491ft 191kts
16-Sep-17 12:40 34.722789 -113.014723 90 9506ft 191kts
16-Sep-17 12:41 34.720843 -112.960832 90 9482ft 191kts
16-Sep-17 12:42 34.718506 -112.896496 90 9483ft 192kts
16-Sep-17 12:43 34.716121 -112.832000 90 9483ft 191kts
16-Sep-17 12:44 34.713716 -112.767836 90 9483ft 191kts
16-Sep-17 12:45 34.711270 -112.703468 90 9372ft 193kts
16-Sep-17 12:46 34.708788 -112.639086 90 9372ft 191kts
16-Sep-17 12:47 34.706283 -112.574888 90 9375ft 191kts
16-Sep-17 12:48 34.703766 -112.511210 90 9402ft 190kts
16-Sep-17 12:49 34.709305 -112.448425 73 9396ft 189kts
16-Sep-17 12:50 34.731443 -112.390916 60 9374ft 188kts
16-Sep-17 12:51 34.755249 -112.335430 61 9376ft 189kts
16-Sep-17 12:52 34.779071 -112.279947 60 9382ft 189kts
16-Sep-17 12:53 34.803417 -112.223282 60 9117ft 190kts
16-Sep-17 12:54 34.819236 -112.164578 71 8370ft 181kts
16-Sep-17 12:55 34.832396 -112.106772 84 7608ft 176kts
16-Sep-17 12:56 34.836917 -112.047623 85 6862ft 179kts
16-Sep-17 12:57 34.841764 -111.989141 86 6054ft 171kts
16-Sep-17 12:58 34.842894 -111.934326 90 5854ft 156kts
16-Sep-17 12:59 34.842435 -111.885572 93 5700ft 134kts
16-Sep-17 13:00 34.855444 -111.843122 61 5691ft 135kts
16-Sep-17 13:01 34.874772 -111.803956 56 5597ft 136kts
16-Sep-17 13:02 34.887035 -111.764434 128 5605ft 131kts
16-Sep-17 13:03 34.862365 -111.771108 229 5133ft 108kts
16-Sep-17 13:04 34.845861 -111.791901 222 4756ft 30kts
16-Sep-17 13:05 34.846985 -111.792073 46 4756ft 10kts
16-Sep-17 13:06 34.849246 -111.790037 44 4756ft 12kts
16-Sep-17 13:07 34.849604 -111.789505 131 4756ft 0kts
16-Sep-17 13:08 34.849718 -111.789677 134 4756ft 0kts
16-Sep-17 13:09 34.849718 -111.789677 134 4756ft 0kts
16-Sep-17 13:10 34.849718 -111.789677 134 4756ft 0kts

Navigation Log

Ident Type
Flight plan parsing failed, navigation log unavailable